sensor_id;sensor_type;location;lat;lon;timestamp;P1;durP1;ratioP1;P2;durP2;ratioP2
16667;SDS011;8447;52.630;4.734;2023-10-31T00:00:37;4.50;;;1.10;;
16667;SDS011;8447;52.630;4.734;2023-10-31T00:03:04;5.73;;;1.87;;
16667;SDS011;8447;52.630;4.734;2023-10-31T00:05:31;2.50;;;1.10;;
16667;SDS011;8447;52.630;4.734;2023-10-31T00:07:57;2.60;;;1.00;;
16667;SDS011;8447;52.630;4.734;2023-10-31T00:10:23;1.97;;;1.30;;
16667;SDS011;8447;52.630;4.734;2023-10-31T00:12:50;4.97;;;1.80;;
16667;SDS011;8447;52.630;4.734;2023-10-31T00:15:16;2.90;;;1.53;;
16667;SDS011;8447;52.630;4.734;2023-10-31T00:17:43;3.83;;;1.20;;
16667;SDS011;8447;52.630;4.734;2023-10-31T00:20:10;2.63;;;1.20;;
16667;SDS011;8447;52.630;4.734;2023-10-31T00:22:37;2.57;;;0.83;;
16667;SDS011;8447;52.630;4.734;2023-10-31T00:25:03;3.77;;;1.23;;
16667;SDS011;8447;52.630;4.734;2023-10-31T00:27:30;2.30;;;1.40;;
16667;SDS011;8447;52.630;4.734;2023-10-31T00:29:57;5.97;;;1.10;;
16667;SDS011;8447;52.630;4.734;2023-10-31T00:32:23;5.63;;;1.00;;
16667;SDS011;8447;52.630;4.734;2023-10-31T00:34:50;2.10;;;1.13;;
16667;SDS011;8447;52.630;4.734;2023-10-31T00:37:18;3.00;;;1.00;;
16667;SDS011;8447;52.630;4.734;2023-10-31T00:39:45;6.10;;;1.20;;
16667;SDS011;8447;52.630;4.734;2023-10-31T00:42:11;2.90;;;0.97;;
16667;SDS011;8447;52.630;4.734;2023-10-31T00:44:37;5.57;;;1.07;;
16667;SDS011;8447;52.630;4.734;2023-10-31T00:47:04;5.27;;;1.70;;
16667;SDS011;8447;52.630;4.734;2023-10-31T00:49:30;2.97;;;1.20;;
16667;SDS011;8447;52.630;4.734;2023-10-31T00:51:56;4.37;;;1.40;;
16667;SDS011;8447;52.630;4.734;2023-10-31T00:54:24;3.47;;;1.20;;
16667;SDS011;8447;52.630;4.734;2023-10-31T00:56:51;4.90;;;1.23;;
16667;SDS011;8447;52.630;4.734;2023-10-31T00:59:17;2.63;;;1.47;;
16667;SDS011;8447;52.630;4.734;2023-10-31T01:01:43;5.03;;;1.40;;
16667;SDS011;8447;52.630;4.734;2023-10-31T01:04:10;4.43;;;1.20;;
16667;SDS011;8447;52.630;4.734;2023-10-31T01:06:39;5.37;;;1.20;;
16667;SDS011;8447;52.630;4.734;2023-10-31T01:09:06;5.20;;;0.97;;
16667;SDS011;8447;52.630;4.734;2023-10-31T01:11:36;5.63;;;1.67;;
16667;SDS011;8447;52.630;4.734;2023-10-31T01:14:02;1.43;;;1.00;;
16667;SDS011;8447;52.630;4.734;2023-10-31T01:16:29;4.43;;;1.10;;
16667;SDS011;8447;52.630;4.734;2023-10-31T01:18:57;1.87;;;1.10;;
16667;SDS011;8447;52.630;4.734;2023-10-31T01:21:23;1.40;;;1.00;;
16667;SDS011;8447;52.630;4.734;2023-10-31T01:23:49;3.53;;;1.20;;
16667;SDS011;8447;52.630;4.734;2023-10-31T01:26:16;2.87;;;1.50;;
16667;SDS011;8447;52.630;4.734;2023-10-31T01:28:43;3.13;;;1.07;;
16667;SDS011;8447;52.630;4.734;2023-10-31T01:31:10;7.50;;;1.00;;
16667;SDS011;8447;52.630;4.734;2023-10-31T01:33:36;5.23;;;1.00;;
16667;SDS011;8447;52.630;4.734;2023-10-31T01:36:03;5.40;;;1.27;;
16667;SDS011;8447;52.630;4.734;2023-10-31T01:38:29;2.67;;;0.90;;
16667;SDS011;8447;52.630;4.734;2023-10-31T01:40:56;1.73;;;0.87;;
16667;SDS011;8447;52.630;4.734;2023-10-31T01:43:31;2.00;;;0.90;;
16667;SDS011;8447;52.630;4.734;2023-10-31T01:45:59;2.40;;;0.87;;
16667;SDS011;8447;52.630;4.734;2023-10-31T01:48:26;2.97;;;0.73;;
16667;SDS011;8447;52.630;4.734;2023-10-31T01:50:53;2.53;;;0.67;;
16667;SDS011;8447;52.630;4.734;2023-10-31T01:53:20;2.23;;;0.80;;
16667;SDS011;8447;52.630;4.734;2023-10-31T01:55:46;1.17;;;0.60;;
16667;SDS011;8447;52.630;4.734;2023-10-31T01:58:13;1.43;;;0.40;;
16667;SDS011;8447;52.630;4.734;2023-10-31T02:00:40;1.17;;;0.53;;
16667;SDS011;8447;52.630;4.734;2023-10-31T02:03:09;1.67;;;0.90;;
16667;SDS011;8447;52.630;4.734;2023-10-31T02:05:35;1.23;;;0.93;;
16667;SDS011;8447;52.630;4.734;2023-10-31T02:08:01;2.83;;;0.77;;
16667;SDS011;8447;52.630;4.734;2023-10-31T02:10:28;4.33;;;0.70;;
16667;SDS011;8447;52.630;4.734;2023-10-31T02:12:54;0.93;;;0.70;;
16667;SDS011;8447;52.630;4.734;2023-10-31T02:15:23;2.20;;;0.60;;
16667;SDS011;8447;52.630;4.734;2023-10-31T02:17:49;3.70;;;0.97;;
16667;SDS011;8447;52.630;4.734;2023-10-31T02:20:17;0.83;;;0.63;;
16667;SDS011;8447;52.630;4.734;2023-10-31T02:22:44;1.67;;;0.67;;
16667;SDS011;8447;52.630;4.734;2023-10-31T02:25:17;3.07;;;0.53;;
16667;SDS011;8447;52.630;4.734;2023-10-31T02:27:44;1.33;;;0.40;;
16667;SDS011;8447;52.630;4.734;2023-10-31T02:30:10;2.30;;;0.70;;
16667;SDS011;8447;52.630;4.734;2023-10-31T02:32:37;0.90;;;0.60;;
16667;SDS011;8447;52.630;4.734;2023-10-31T02:35:03;2.17;;;0.60;;
16667;SDS011;8447;52.630;4.734;2023-10-31T02:37:30;2.83;;;0.60;;
16667;SDS011;8447;52.630;4.734;2023-10-31T02:39:57;1.53;;;0.57;;
16667;SDS011;8447;52.630;4.734;2023-10-31T02:42:24;5.10;;;0.80;;
16667;SDS011;8447;52.630;4.734;2023-10-31T02:44:51;0.83;;;0.50;;
16667;SDS011;8447;52.630;4.734;2023-10-31T02:47:17;3.47;;;0.70;;
16667;SDS011;8447;52.630;4.734;2023-10-31T02:49:43;3.57;;;0.77;;
16667;SDS011;8447;52.630;4.734;2023-10-31T02:52:10;4.53;;;0.80;;
16667;SDS011;8447;52.630;4.734;2023-10-31T02:54:36;0.97;;;0.37;;
16667;SDS011;8447;52.630;4.734;2023-10-31T02:57:04;2.20;;;0.67;;
16667;SDS011;8447;52.630;4.734;2023-10-31T02:59:31;2.30;;;0.60;;
16667;SDS011;8447;52.630;4.734;2023-10-31T03:01:57;0.90;;;0.50;;
16667;SDS011;8447;52.630;4.734;2023-10-31T03:04:23;0.93;;;0.40;;
16667;SDS011;8447;52.630;4.734;2023-10-31T03:06:50;3.60;;;0.60;;
16667;SDS011;8447;52.630;4.734;2023-10-31T03:09:16;3.60;;;0.60;;
16667;SDS011;8447;52.630;4.734;2023-10-31T03:11:42;1.27;;;0.57;;
16667;SDS011;8447;52.630;4.734;2023-10-31T03:14:10;2.40;;;0.47;;
16667;SDS011;8447;52.630;4.734;2023-10-31T03:16:36;1.33;;;0.30;;
16667;SDS011;8447;52.630;4.734;2023-10-31T03:19:03;2.13;;;0.50;;
16667;SDS011;8447;52.630;4.734;2023-10-31T03:21:30;1.83;;;0.60;;
16667;SDS011;8447;52.630;4.734;2023-10-31T03:23:57;1.00;;;0.50;;
16667;SDS011;8447;52.630;4.734;2023-10-31T03:26:23;2.77;;;0.80;;
16667;SDS011;8447;52.630;4.734;2023-10-31T03:28:50;1.43;;;0.40;;
16667;SDS011;8447;52.630;4.734;2023-10-31T03:31:23;3.70;;;0.50;;
16667;SDS011;8447;52.630;4.734;2023-10-31T03:33:50;3.43;;;0.60;;
16667;SDS011;8447;52.630;4.734;2023-10-31T03:36:16;3.33;;;0.70;;
16667;SDS011;8447;52.630;4.734;2023-10-31T03:38:43;0.43;;;0.40;;
16667;SDS011;8447;52.630;4.734;2023-10-31T03:41:09;5.63;;;0.90;;
16667;SDS011;8447;52.630;4.734;2023-10-31T03:43:35;4.20;;;0.97;;
16667;SDS011;8447;52.630;4.734;2023-10-31T03:46:02;1.47;;;0.77;;
16667;SDS011;8447;52.630;4.734;2023-10-31T03:48:30;6.30;;;0.80;;
16667;SDS011;8447;52.630;4.734;2023-10-31T03:50:56;2.47;;;0.90;;
16667;SDS011;8447;52.630;4.734;2023-10-31T03:53:22;3.43;;;1.00;;
16667;SDS011;8447;52.630;4.734;2023-10-31T03:55:49;2.67;;;0.80;;
16667;SDS011;8447;52.630;4.734;2023-10-31T03:58:15;4.80;;;1.20;;
16667;SDS011;8447;52.630;4.734;2023-10-31T04:00:41;4.70;;;0.80;;
16667;SDS011;8447;52.630;4.734;2023-10-31T04:03:08;3.47;;;1.13;;
16667;SDS011;8447;52.630;4.734;2023-10-31T04:05:35;3.53;;;0.80;;
16667;SDS011;8447;52.630;4.734;2023-10-31T04:08:02;5.57;;;0.67;;
16667;SDS011;8447;52.630;4.734;2023-10-31T04:10:29;3.57;;;0.93;;
16667;SDS011;8447;52.630;4.734;2023-10-31T04:12:55;6.20;;;1.03;;
16667;SDS011;8447;52.630;4.734;2023-10-31T04:15:22;3.73;;;0.77;;
16667;SDS011;8447;52.630;4.734;2023-10-31T04:17:48;3.90;;;1.10;;
16667;SDS011;8447;52.630;4.734;2023-10-31T04:20:14;2.23;;;0.70;;
16667;SDS011;8447;52.630;4.734;2023-10-31T04:22:42;3.17;;;0.80;;
16667;SDS011;8447;52.630;4.734;2023-10-31T04:25:09;2.03;;;0.70;;
16667;SDS011;8447;52.630;4.734;2023-10-31T04:27:35;2.30;;;0.70;;
16667;SDS011;8447;52.630;4.734;2023-10-31T04:30:01;2.37;;;0.60;;
16667;SDS011;8447;52.630;4.734;2023-10-31T04:32:28;3.13;;;0.60;;
16667;SDS011;8447;52.630;4.734;2023-10-31T04:34:54;5.30;;;0.90;;
16667;SDS011;8447;52.630;4.734;2023-10-31T04:37:20;5.93;;;0.87;;
16667;SDS011;8447;52.630;4.734;2023-10-31T04:39:48;3.77;;;1.00;;
16667;SDS011;8447;52.630;4.734;2023-10-31T04:42:15;4.13;;;0.80;;
16667;SDS011;8447;52.630;4.734;2023-10-31T04:44:41;5.27;;;0.80;;
16667;SDS011;8447;52.630;4.734;2023-10-31T04:47:08;2.37;;;0.87;;
16667;SDS011;8447;52.630;4.734;2023-10-31T04:49:34;6.27;;;0.67;;
16667;SDS011;8447;52.630;4.734;2023-10-31T04:52:00;4.93;;;0.50;;
16667;SDS011;8447;52.630;4.734;2023-10-31T04:54:27;4.20;;;0.53;;
16667;SDS011;8447;52.630;4.734;2023-10-31T04:56:55;3.70;;;0.40;;
16667;SDS011;8447;52.630;4.734;2023-10-31T04:59:21;1.40;;;0.50;;
16667;SDS011;8447;52.630;4.734;2023-10-31T05:01:48;5.83;;;0.70;;
16667;SDS011;8447;52.630;4.734;2023-10-31T05:04:14;2.63;;;1.03;;
16667;SDS011;8447;52.630;4.734;2023-10-31T05:06:40;2.27;;;0.60;;
16667;SDS011;8447;52.630;4.734;2023-10-31T05:09:07;3.90;;;0.40;;
16667;SDS011;8447;52.630;4.734;2023-10-31T05:11:35;3.90;;;0.67;;
16667;SDS011;8447;52.630;4.734;2023-10-31T05:14:03;2.87;;;0.57;;
16667;SDS011;8447;52.630;4.734;2023-10-31T05:16:29;2.70;;;0.53;;
16667;SDS011;8447;52.630;4.734;2023-10-31T05:18:56;1.67;;;0.73;;
16667;SDS011;8447;52.630;4.734;2023-10-31T05:21:24;1.53;;;0.70;;
16667;SDS011;8447;52.630;4.734;2023-10-31T05:23:52;2.20;;;0.50;;
16667;SDS011;8447;52.630;4.734;2023-10-31T05:26:18;2.40;;;0.87;;
16667;SDS011;8447;52.630;4.734;2023-10-31T05:28:44;4.03;;;0.60;;
16667;SDS011;8447;52.630;4.734;2023-10-31T05:31:12;1.90;;;0.50;;
16667;SDS011;8447;52.630;4.734;2023-10-31T05:33:41;2.60;;;0.60;;
16667;SDS011;8447;52.630;4.734;2023-10-31T05:36:17;0.67;;;0.40;;
16667;SDS011;8447;52.630;4.734;2023-10-31T05:38:43;1.03;;;0.47;;
16667;SDS011;8447;52.630;4.734;2023-10-31T05:41:09;1.03;;;0.40;;
16667;SDS011;8447;52.630;4.734;2023-10-31T05:43:36;4.07;;;0.73;;
16667;SDS011;8447;52.630;4.734;2023-10-31T05:46:02;1.67;;;0.40;;
16667;SDS011;8447;52.630;4.734;2023-10-31T05:48:31;0.50;;;0.40;;
16667;SDS011;8447;52.630;4.734;2023-10-31T05:50:58;1.47;;;0.40;;
16667;SDS011;8447;52.630;4.734;2023-10-31T05:53:24;3.63;;;0.30;;
16667;SDS011;8447;52.630;4.734;2023-10-31T05:55:50;4.97;;;0.53;;
16667;SDS011;8447;52.630;4.734;2023-10-31T05:58:17;0.90;;;0.50;;
16667;SDS011;8447;52.630;4.734;2023-10-31T06:00:43;1.73;;;0.33;;
16667;SDS011;8447;52.630;4.734;2023-10-31T06:03:09;0.80;;;0.40;;
16667;SDS011;8447;52.630;4.734;2023-10-31T06:05:37;0.97;;;0.30;;
16667;SDS011;8447;52.630;4.734;2023-10-31T06:08:03;1.60;;;0.47;;
16667;SDS011;8447;52.630;4.734;2023-10-31T06:10:30;2.57;;;0.50;;
16667;SDS011;8447;52.630;4.734;2023-10-31T06:12:56;0.70;;;0.30;;
16667;SDS011;8447;52.630;4.734;2023-10-31T06:15:22;0.57;;;0.40;;
16667;SDS011;8447;52.630;4.734;2023-10-31T06:17:49;1.50;;;0.43;;
16667;SDS011;8447;52.630;4.734;2023-10-31T06:20:15;0.50;;;0.30;;
16667;SDS011;8447;52.630;4.734;2023-10-31T06:22:43;1.17;;;0.40;;
16667;SDS011;8447;52.630;4.734;2023-10-31T06:25:09;0.30;;;0.30;;
16667;SDS011;8447;52.630;4.734;2023-10-31T06:27:38;0.70;;;0.50;;
16667;SDS011;8447;52.630;4.734;2023-10-31T06:30:05;4.27;;;0.60;;
16667;SDS011;8447;52.630;4.734;2023-10-31T06:32:31;1.87;;;0.50;;
16667;SDS011;8447;52.630;4.734;2023-10-31T06:34:58;4.00;;;0.50;;
16667;SDS011;8447;52.630;4.734;2023-10-31T06:37:24;1.10;;;0.60;;
16667;SDS011;8447;52.630;4.734;2023-10-31T06:39:52;0.90;;;0.47;;
16667;SDS011;8447;52.630;4.734;2023-10-31T06:42:19;6.23;;;0.53;;
16667;SDS011;8447;52.630;4.734;2023-10-31T06:44:45;0.90;;;0.43;;
16667;SDS011;8447;52.630;4.734;2023-10-31T06:47:11;3.23;;;0.60;;
16667;SDS011;8447;52.630;4.734;2023-10-31T06:49:38;2.67;;;0.60;;
16667;SDS011;8447;52.630;4.734;2023-10-31T06:52:04;4.57;;;0.90;;
16667;SDS011;8447;52.630;4.734;2023-10-31T06:54:31;1.87;;;0.50;;
16667;SDS011;8447;52.630;4.734;2023-10-31T06:56:59;1.57;;;0.40;;
16667;SDS011;8447;52.630;4.734;2023-10-31T06:59:26;4.00;;;0.50;;
16667;SDS011;8447;52.630;4.734;2023-10-31T07:01:54;0.40;;;0.40;;
16667;SDS011;8447;52.630;4.734;2023-10-31T07:04:20;1.97;;;0.63;;
16667;SDS011;8447;52.630;4.734;2023-10-31T07:06:47;1.93;;;0.60;;
16667;SDS011;8447;52.630;4.734;2023-10-31T07:09:14;3.03;;;0.43;;
16667;SDS011;8447;52.630;4.734;2023-10-31T07:11:40;0.90;;;0.33;;
16667;SDS011;8447;52.630;4.734;2023-10-31T07:14:08;2.23;;;0.70;;
16667;SDS011;8447;52.630;4.734;2023-10-31T07:16:34;2.10;;;0.50;;
16667;SDS011;8447;52.630;4.734;2023-10-31T07:19:00;0.47;;;0.40;;
16667;SDS011;8447;52.630;4.734;2023-10-31T07:21:27;2.73;;;0.80;;
16667;SDS011;8447;52.630;4.734;2023-10-31T07:23:53;2.70;;;0.70;;
16667;SDS011;8447;52.630;4.734;2023-10-31T07:26:20;3.60;;;0.50;;
16667;SDS011;8447;52.630;4.734;2023-10-31T07:28:46;2.73;;;0.60;;
16667;SDS011;8447;52.630;4.734;2023-10-31T07:31:15;1.80;;;0.50;;
16667;SDS011;8447;52.630;4.734;2023-10-31T07:33:43;1.70;;;0.47;;
16667;SDS011;8447;52.630;4.734;2023-10-31T07:36:09;2.73;;;0.60;;
16667;SDS011;8447;52.630;4.734;2023-10-31T07:38:36;1.40;;;0.70;;
16667;SDS011;8447;52.630;4.734;2023-10-31T07:41:02;3.17;;;0.73;;
16667;SDS011;8447;52.630;4.734;2023-10-31T07:43:29;4.13;;;0.60;;
16667;SDS011;8447;52.630;4.734;2023-10-31T07:45:55;0.57;;;0.40;;
16667;SDS011;8447;52.630;4.734;2023-10-31T07:48:23;2.10;;;0.40;;
16667;SDS011;8447;52.630;4.734;2023-10-31T07:50:49;1.20;;;0.50;;
16667;SDS011;8447;52.630;4.734;2023-10-31T07:53:15;3.37;;;0.50;;
16667;SDS011;8447;52.630;4.734;2023-10-31T07:55:42;4.20;;;0.80;;
16667;SDS011;8447;52.630;4.734;2023-10-31T07:58:08;5.10;;;0.60;;
16667;SDS011;8447;52.630;4.734;2023-10-31T08:00:35;2.10;;;1.00;;
16667;SDS011;8447;52.630;4.734;2023-10-31T08:03:04;4.33;;;0.50;;
16667;SDS011;8447;52.630;4.734;2023-10-31T08:05:31;3.67;;;0.60;;
16667;SDS011;8447;52.630;4.734;2023-10-31T08:07:58;2.37;;;0.60;;
16667;SDS011;8447;52.630;4.734;2023-10-31T08:10:24;3.83;;;0.83;;
16667;SDS011;8447;52.630;4.734;2023-10-31T08:12:50;2.90;;;0.93;;
16667;SDS011;8447;52.630;4.734;2023-10-31T08:15:17;3.77;;;0.90;;
16667;SDS011;8447;52.630;4.734;2023-10-31T08:17:43;2.07;;;0.83;;
16667;SDS011;8447;52.630;4.734;2023-10-31T08:20:10;0.40;;;0.30;;
16667;SDS011;8447;52.630;4.734;2023-10-31T08:22:39;2.40;;;0.80;;
16667;SDS011;8447;52.630;4.734;2023-10-31T08:25:07;4.87;;;0.43;;
16667;SDS011;8447;52.630;4.734;2023-10-31T08:27:34;2.40;;;1.00;;
16667;SDS011;8447;52.630;4.734;2023-10-31T08:30:00;1.73;;;0.50;;
16667;SDS011;8447;52.630;4.734;2023-10-31T08:32:27;3.80;;;0.60;;
16667;SDS011;8447;52.630;4.734;2023-10-31T08:34:54;1.97;;;0.60;;
16667;SDS011;8447;52.630;4.734;2023-10-31T08:37:21;3.63;;;0.50;;
16667;SDS011;8447;52.630;4.734;2023-10-31T08:39:49;2.50;;;1.30;;
16667;SDS011;8447;52.630;4.734;2023-10-31T09:03:36;1.53;;;0.57;;
16667;SDS011;8447;52.630;4.734;2023-10-31T09:06:03;1.50;;;0.40;;
16667;SDS011;8447;52.630;4.734;2023-10-31T09:08:30;1.83;;;1.00;;
16667;SDS011;8447;52.630;4.734;2023-10-31T09:10:57;2.77;;;0.33;;
16667;SDS011;8447;52.630;4.734;2023-10-31T09:13:23;1.47;;;0.57;;
16667;SDS011;8447;52.630;4.734;2023-10-31T09:15:50;1.83;;;0.30;;
16667;SDS011;8447;52.630;4.734;2023-10-31T09:18:16;6.13;;;0.60;;
16667;SDS011;8447;52.630;4.734;2023-10-31T09:20:44;2.40;;;0.57;;
16667;SDS011;8447;52.630;4.734;2023-10-31T09:23:10;4.10;;;0.50;;
16667;SDS011;8447;52.630;4.734;2023-10-31T09:25:37;2.73;;;0.60;;
16667;SDS011;8447;52.630;4.734;2023-10-31T09:28:03;1.40;;;0.37;;
16667;SDS011;8447;52.630;4.734;2023-10-31T09:55:03;2.60;;;0.43;;
16667;SDS011;8447;52.630;4.734;2023-10-31T09:57:30;1.13;;;0.40;;
16667;SDS011;8447;52.630;4.734;2023-10-31T09:59:56;2.20;;;0.87;;
16667;SDS011;8447;52.630;4.734;2023-10-31T10:02:22;2.20;;;0.53;;
16667;SDS011;8447;52.630;4.734;2023-10-31T10:04:49;1.57;;;0.50;;
16667;SDS011;8447;52.630;4.734;2023-10-31T10:07:15;1.37;;;0.57;;
16667;SDS011;8447;52.630;4.734;2023-10-31T10:09:43;1.60;;;0.57;;
16667;SDS011;8447;52.630;4.734;2023-10-31T10:12:12;3.10;;;0.57;;
16667;SDS011;8447;52.630;4.734;2023-10-31T10:14:39;1.03;;;0.30;;
16667;SDS011;8447;52.630;4.734;2023-10-31T10:17:11;1.53;;;0.60;;
16667;SDS011;8447;52.630;4.734;2023-10-31T10:19:40;1.90;;;0.60;;
16667;SDS011;8447;52.630;4.734;2023-10-31T10:22:06;4.20;;;0.50;;
16667;SDS011;8447;52.630;4.734;2023-10-31T10:24:32;0.63;;;0.33;;
16667;SDS011;8447;52.630;4.734;2023-10-31T10:26:59;3.33;;;0.50;;
16667;SDS011;8447;52.630;4.734;2023-10-31T10:29:26;3.83;;;0.60;;
16667;SDS011;8447;52.630;4.734;2023-10-31T10:31:53;1.57;;;0.40;;
16667;SDS011;8447;52.630;4.734;2023-10-31T10:34:19;2.13;;;0.40;;
16667;SDS011;8447;52.630;4.734;2023-10-31T10:36:46;4.67;;;0.50;;
16667;SDS011;8447;52.630;4.734;2023-10-31T10:39:13;1.93;;;0.30;;
16667;SDS011;8447;52.630;4.734;2023-10-31T10:41:42;1.50;;;0.50;;
16667;SDS011;8447;52.630;4.734;2023-10-31T10:44:09;1.30;;;0.50;;
16667;SDS011;8447;52.630;4.734;2023-10-31T10:46:39;2.30;;;0.40;;
16667;SDS011;8447;52.630;4.734;2023-10-31T10:49:06;0.97;;;0.50;;
16667;SDS011;8447;52.630;4.734;2023-10-31T10:51:36;1.47;;;0.40;;
16667;SDS011;8447;52.630;4.734;2023-10-31T10:54:08;3.80;;;0.60;;
16667;SDS011;8447;52.630;4.734;2023-10-31T10:56:37;0.57;;;0.30;;
16667;SDS011;8447;52.630;4.734;2023-10-31T10:59:06;5.07;;;0.50;;
16667;SDS011;8447;52.630;4.734;2023-10-31T11:01:33;2.23;;;0.30;;
16667;SDS011;8447;52.630;4.734;2023-10-31T11:04:02;3.40;;;0.37;;
16667;SDS011;8447;52.630;4.734;2023-10-31T11:06:29;0.40;;;0.40;;
16667;SDS011;8447;52.630;4.734;2023-10-31T11:08:55;1.83;;;0.40;;
16667;SDS011;8447;52.630;4.734;2023-10-31T11:11:22;2.27;;;0.97;;
16667;SDS011;8447;52.630;4.734;2023-10-31T11:13:49;1.97;;;0.37;;
16667;SDS011;8447;52.630;4.734;2023-10-31T11:16:17;2.00;;;0.53;;
16667;SDS011;8447;52.630;4.734;2023-10-31T11:18:46;3.30;;;0.60;;
16667;SDS011;8447;52.630;4.734;2023-10-31T11:21:14;0.97;;;0.47;;
16667;SDS011;8447;52.630;4.734;2023-10-31T11:23:40;1.53;;;0.50;;
16667;SDS011;8447;52.630;4.734;2023-10-31T11:26:07;0.67;;;0.30;;
16667;SDS011;8447;52.630;4.734;2023-10-31T11:28:34;2.37;;;0.50;;
16667;SDS011;8447;52.630;4.734;2023-10-31T11:31:02;1.13;;;0.40;;
16667;SDS011;8447;52.630;4.734;2023-10-31T11:33:29;1.37;;;0.40;;
16667;SDS011;8447;52.630;4.734;2023-10-31T11:36:02;0.63;;;0.30;;
16667;SDS011;8447;52.630;4.734;2023-10-31T11:38:34;1.57;;;0.40;;
16667;SDS011;8447;52.630;4.734;2023-10-31T11:41:01;0.90;;;0.30;;
16667;SDS011;8447;52.630;4.734;2023-10-31T11:46:17;1.03;;;0.50;;
16667;SDS011;8447;52.630;4.734;2023-10-31T11:48:45;4.63;;;0.50;;
16667;SDS011;8447;52.630;4.734;2023-10-31T11:51:11;2.57;;;0.63;;
16667;SDS011;8447;52.630;4.734;2023-10-31T11:53:39;1.77;;;0.50;;
16667;SDS011;8447;52.630;4.734;2023-10-31T11:56:06;1.93;;;0.50;;
16667;SDS011;8447;52.630;4.734;2023-10-31T11:58:34;1.53;;;0.33;;
16667;SDS011;8447;52.630;4.734;2023-10-31T12:01:01;0.90;;;0.37;;
16667;SDS011;8447;52.630;4.734;2023-10-31T12:03:28;1.63;;;0.50;;
16667;SDS011;8447;52.630;4.734;2023-10-31T12:06:02;0.87;;;0.40;;
16667;SDS011;8447;52.630;4.734;2023-10-31T12:08:30;1.00;;;0.50;;
16667;SDS011;8447;52.630;4.734;2023-10-31T12:11:05;0.73;;;0.40;;
16667;SDS011;8447;52.630;4.734;2023-10-31T12:13:32;3.93;;;0.47;;
16667;SDS011;8447;52.630;4.734;2023-10-31T12:15:59;1.93;;;0.50;;
16667;SDS011;8447;52.630;4.734;2023-10-31T12:18:26;3.23;;;0.40;;
16667;SDS011;8447;52.630;4.734;2023-10-31T12:20:53;1.23;;;0.37;;
16667;SDS011;8447;52.630;4.734;2023-10-31T12:23:19;2.03;;;0.27;;
16667;SDS011;8447;52.630;4.734;2023-10-31T12:25:46;2.20;;;0.50;;
16667;SDS011;8447;52.630;4.734;2023-10-31T12:28:17;0.90;;;0.50;;
16667;SDS011;8447;52.630;4.734;2023-10-31T12:30:44;4.13;;;0.57;;
16667;SDS011;8447;52.630;4.734;2023-10-31T12:33:10;2.10;;;0.47;;
16667;SDS011;8447;52.630;4.734;2023-10-31T12:35:37;2.70;;;0.40;;
16667;SDS011;8447;52.630;4.734;2023-10-31T12:38:03;1.23;;;0.43;;
16667;SDS011;8447;52.630;4.734;2023-10-31T12:40:30;1.53;;;0.47;;
16667;SDS011;8447;52.630;4.734;2023-10-31T12:42:56;3.03;;;0.30;;
16667;SDS011;8447;52.630;4.734;2023-10-31T12:45:25;3.20;;;0.57;;
16667;SDS011;8447;52.630;4.734;2023-10-31T12:48:01;1.10;;;0.30;;
16667;SDS011;8447;52.630;4.734;2023-10-31T12:50:28;2.33;;;0.37;;
16667;SDS011;8447;52.630;4.734;2023-10-31T12:52:55;0.83;;;0.20;;
16667;SDS011;8447;52.630;4.734;2023-10-31T12:55:23;2.43;;;0.30;;
16667;SDS011;8447;52.630;4.734;2023-10-31T12:57:50;2.23;;;0.50;;
16667;SDS011;8447;52.630;4.734;2023-10-31T13:00:17;3.20;;;0.40;;
16667;SDS011;8447;52.630;4.734;2023-10-31T13:02:51;1.53;;;0.40;;
16667;SDS011;8447;52.630;4.734;2023-10-31T13:05:18;2.27;;;0.40;;
16667;SDS011;8447;52.630;4.734;2023-10-31T13:07:47;0.90;;;0.43;;
16667;SDS011;8447;52.630;4.734;2023-10-31T13:10:15;2.13;;;0.33;;
16667;SDS011;8447;52.630;4.734;2023-10-31T13:12:43;2.33;;;0.30;;
16667;SDS011;8447;52.630;4.734;2023-10-31T13:15:09;1.73;;;0.40;;
16667;SDS011;8447;52.630;4.734;2023-10-31T13:17:36;2.27;;;0.40;;
16667;SDS011;8447;52.630;4.734;2023-10-31T13:20:05;1.37;;;0.30;;
16667;SDS011;8447;52.630;4.734;2023-10-31T13:22:33;1.37;;;0.50;;
16667;SDS011;8447;52.630;4.734;2023-10-31T13:25:00;2.30;;;0.30;;
16667;SDS011;8447;52.630;4.734;2023-10-31T13:27:29;3.00;;;0.40;;
16667;SDS011;8447;52.630;4.734;2023-10-31T13:29:56;4.70;;;0.37;;
16667;SDS011;8447;52.630;4.734;2023-10-31T13:32:22;0.50;;;0.20;;
16667;SDS011;8447;52.630;4.734;2023-10-31T13:34:49;1.23;;;0.20;;
16667;SDS011;8447;52.630;4.734;2023-10-31T13:37:17;1.70;;;0.30;;
16667;SDS011;8447;52.630;4.734;2023-10-31T13:39:43;1.97;;;0.60;;
16667;SDS011;8447;52.630;4.734;2023-10-31T13:42:09;1.23;;;0.30;;
16667;SDS011;8447;52.630;4.734;2023-10-31T13:44:36;1.60;;;0.37;;
16667;SDS011;8447;52.630;4.734;2023-10-31T13:47:02;0.33;;;0.30;;
16667;SDS011;8447;52.630;4.734;2023-10-31T13:49:29;4.00;;;0.53;;
16667;SDS011;8447;52.630;4.734;2023-10-31T13:51:55;0.77;;;0.30;;
16667;SDS011;8447;52.630;4.734;2023-10-31T13:54:23;0.27;;;0.20;;
16667;SDS011;8447;52.630;4.734;2023-10-31T13:56:49;1.00;;;0.27;;
16667;SDS011;8447;52.630;4.734;2023-10-31T13:59:16;2.33;;;0.37;;
16667;SDS011;8447;52.630;4.734;2023-10-31T14:01:43;0.77;;;0.30;;
16667;SDS011;8447;52.630;4.734;2023-10-31T14:04:11;2.60;;;0.40;;
16667;SDS011;8447;52.630;4.734;2023-10-31T14:06:38;0.77;;;0.30;;
16667;SDS011;8447;52.630;4.734;2023-10-31T14:09:06;0.63;;;0.30;;
16667;SDS011;8447;52.630;4.734;2023-10-31T14:11:34;0.93;;;0.40;;
16667;SDS011;8447;52.630;4.734;2023-10-31T14:14:00;2.30;;;0.50;;
16667;SDS011;8447;52.630;4.734;2023-10-31T14:16:31;1.70;;;0.20;;
16667;SDS011;8447;52.630;4.734;2023-10-31T14:18:58;1.00;;;0.50;;
16667;SDS011;8447;52.630;4.734;2023-10-31T14:21:24;0.50;;;0.30;;
16667;SDS011;8447;52.630;4.734;2023-10-31T14:23:50;3.47;;;0.60;;
16667;SDS011;8447;52.630;4.734;2023-10-31T14:26:19;3.20;;;0.30;;
16667;SDS011;8447;52.630;4.734;2023-10-31T14:28:46;1.73;;;0.57;;
16667;SDS011;8447;52.630;4.734;2023-10-31T14:31:13;1.27;;;0.40;;
16667;SDS011;8447;52.630;4.734;2023-10-31T14:33:39;3.40;;;0.37;;
16667;SDS011;8447;52.630;4.734;2023-10-31T14:36:06;1.83;;;0.30;;
16667;SDS011;8447;52.630;4.734;2023-10-31T14:38:35;1.53;;;0.30;;
16667;SDS011;8447;52.630;4.734;2023-10-31T14:41:01;3.30;;;0.50;;
16667;SDS011;8447;52.630;4.734;2023-10-31T14:43:28;2.50;;;0.43;;
16667;SDS011;8447;52.630;4.734;2023-10-31T14:45:56;2.03;;;0.40;;
16667;SDS011;8447;52.630;4.734;2023-10-31T14:48:22;3.07;;;0.40;;
16667;SDS011;8447;52.630;4.734;2023-10-31T14:50:49;2.70;;;0.40;;
16667;SDS011;8447;52.630;4.734;2023-10-31T14:53:15;4.03;;;0.40;;
16667;SDS011;8447;52.630;4.734;2023-10-31T14:55:43;3.17;;;0.50;;
16667;SDS011;8447;52.630;4.734;2023-10-31T14:58:09;1.00;;;0.60;;
16667;SDS011;8447;52.630;4.734;2023-10-31T15:00:36;1.23;;;0.60;;
16667;SDS011;8447;52.630;4.734;2023-10-31T15:03:04;0.80;;;0.40;;
16667;SDS011;8447;52.630;4.734;2023-10-31T15:05:30;1.27;;;0.67;;
16667;SDS011;8447;52.630;4.734;2023-10-31T15:07:57;1.07;;;0.50;;
16667;SDS011;8447;52.630;4.734;2023-10-31T15:10:23;2.77;;;0.70;;
16667;SDS011;8447;52.630;4.734;2023-10-31T15:12:52;2.00;;;0.70;;
16667;SDS011;8447;52.630;4.734;2023-10-31T15:15:19;1.13;;;0.67;;
16667;SDS011;8447;52.630;4.734;2023-10-31T15:17:45;5.60;;;0.90;;
16667;SDS011;8447;52.630;4.734;2023-10-31T15:20:14;1.63;;;0.80;;
16667;SDS011;8447;52.630;4.734;2023-10-31T15:22:40;1.43;;;0.60;;
16667;SDS011;8447;52.630;4.734;2023-10-31T15:25:08;1.53;;;0.70;;
16667;SDS011;8447;52.630;4.734;2023-10-31T15:27:34;1.87;;;0.73;;
16667;SDS011;8447;52.630;4.734;2023-10-31T15:30:01;2.73;;;0.63;;
16667;SDS011;8447;52.630;4.734;2023-10-31T15:32:27;4.53;;;1.00;;
16667;SDS011;8447;52.630;4.734;2023-10-31T15:34:58;1.03;;;0.80;;
16667;SDS011;8447;52.630;4.734;2023-10-31T15:37:26;2.80;;;0.70;;
16667;SDS011;8447;52.630;4.734;2023-10-31T15:39:53;3.67;;;0.77;;
16667;SDS011;8447;52.630;4.734;2023-10-31T15:42:19;1.60;;;0.70;;
16667;SDS011;8447;52.630;4.734;2023-10-31T15:44:45;2.83;;;0.63;;
16667;SDS011;8447;52.630;4.734;2023-10-31T15:47:12;1.97;;;0.60;;